Time;durP1;ratioP1;P1;durP2;ratioP2;P2;SDS_P1;SDS_P2;PMS_P1;PMS_P2;Temp;Humidity;BMP_temperature;BMP_pressure;BME280_temperature;BME280_humidity;BME280_pressure;Samples;Min_cycle;Max_cycle;Signal;HPM_P1;HPM_P2
2023/01/27 00:00:53;;;;;;;6.40;1.50;;;;;;;3.35;91.39;102357.03;5032522;28;20040;-76
2023/01/27 00:03:19;;;;;;;5.97;1.70;;;;;;;3.33;91.40;102361.25;5032704;28;20026;-76
2023/01/27 00:05:46;;;;;;;9.97;1.50;;;;;;;3.32;91.44;102360.41;5033117;28;20502;-76
2023/01/27 00:08:12;;;;;;;5.80;1.27;;;;;;;3.30;91.29;102356.00;5030578;28;20029;-76
2023/01/27 00:10:37;;;;;;;7.77;1.43;;;;;;;3.29;91.52;102364.56;5031658;28;20408;-76
2023/01/27 00:15:46;;;;;;;6.23;1.50;;;;;;;3.27;91.95;102361.94;5032326;28;20488;-76
2023/01/27 00:18:12;;;;;;;8.43;1.50;;;;;;;3.26;91.64;102357.63;5031614;28;20030;-76
2023/01/27 00:26:14;;;;;;;6.40;1.43;;;;;;;3.21;91.11;102356.63;5032305;28;20044;-76
2023/01/27 00:28:40;;;;;;;7.33;1.80;;;;;;;3.21;90.73;102359.19;5031477;28;20409;-76
2023/01/27 00:33:52;;;;;;;4.90;1.97;;;;;;;3.18;90.35;102356.53;5033132;28;20047;-76
2023/01/27 00:36:18;;;;;;;9.27;2.00;;;;;;;3.16;90.27;102364.19;5029390;28;20029;-76
2023/01/27 00:38:43;;;;;;;6.27;1.83;;;;;;;3.15;89.91;102370.16;5032073;28;20124;-76
2023/01/27 00:41:18;;;;;;;8.53;2.20;;;;;;;3.15;89.53;102365.03;5029398;28;20025;-76
2023/01/27 00:43:45;;;;;;;10.27;2.60;;;;;;;3.13;89.20;102358.97;5014966;28;20034;-75
2023/01/27 00:46:10;;;;;;;8.00;2.20;;;;;;;3.13;89.41;102364.09;5032153;28;20461;-76
2023/01/27 00:48:35;;;;;;;7.73;2.33;;;;;;;3.10;88.95;102365.72;5032717;28;20046;-76
2023/01/27 00:51:01;;;;;;;7.57;2.20;;;;;;;3.08;89.28;102364.81;5012327;28;20120;-76
2023/01/27 00:53:26;;;;;;;9.30;2.10;;;;;;;3.05;88.77;102368.16;5032120;28;20064;-76
2023/01/27 00:55:52;;;;;;;9.70;3.53;;;;;;;3.04;89.02;102372.41;5030961;28;20383;-75
2023/01/27 00:58:17;;;;;;;4.70;2.10;;;;;;;3.03;88.95;102373.25;5031113;28;20060;-76
2023/01/27 01:00:43;;;;;;;8.87;2.27;;;;;;;3.04;88.56;102379.28;5032589;28;20088;-76
2023/01/27 01:03:09;;;;;;;6.03;2.20;;;;;;;3.03;88.66;102372.38;5031529;28;20494;-75
2023/01/27 01:05:34;;;;;;;8.50;2.50;;;;;;;3.04;88.26;102384.41;5028361;28;20608;-75
2023/01/27 01:07:59;;;;;;;9.83;2.90;;;;;;;3.04;88.52;102380.13;5031621;28;20108;-76
2023/01/27 01:10:25;;;;;;;6.53;2.33;;;;;;;3.03;88.31;102373.25;5027915;28;20099;-76
2023/01/27 01:12:50;;;;;;;5.97;2.50;;;;;;;3.00;88.57;102377.44;5028640;28;20033;-76
2023/01/27 01:15:15;;;;;;;7.23;2.13;;;;;;;2.97;89.04;102377.31;5031559;28;20087;-76
2023/01/27 01:17:40;;;;;;;5.10;2.40;;;;;;;2.96;88.71;102371.31;5030787;28;20036;-76
2023/01/27 01:20:07;;;;;;;8.00;2.60;;;;;;;2.92;88.77;102381.44;5030496;28;20022;-77
2023/01/27 01:22:32;;;;;;;10.07;2.90;;;;;;;2.93;88.64;102383.19;5029608;28;20029;-76
2023/01/27 01:24:57;;;;;;;6.10;2.77;;;;;;;2.90;88.76;102383.13;5031739;28;20032;-76
2023/01/27 01:27:23;;;;;;;5.90;2.53;;;;;;;2.87;88.74;102387.34;5030436;28;20036;-76
2023/01/27 01:29:48;;;;;;;7.97;2.70;;;;;;;2.86;88.98;102393.31;5030051;28;20076;-76
2023/01/27 01:32:13;;;;;;;8.23;2.97;;;;;;;2.87;88.94;102387.34;5029050;28;20403;-76
2023/01/27 01:34:38;;;;;;;6.00;2.43;;;;;;;2.87;88.92;102389.91;5031212;28;20043;-76
2023/01/27 01:37:04;;;;;;;7.80;2.90;;;;;;;2.85;88.75;102389.00;5030064;28;20056;-76
2023/01/27 01:39:30;;;;;;;9.63;2.53;;;;;;;2.84;88.93;102387.25;5028908;28;20131;-76
2023/01/27 01:41:55;;;;;;;7.53;2.80;;;;;;;2.84;89.24;102401.78;5029975;28;20104;-76
2023/01/27 01:44:24;;;;;;;8.10;2.77;;;;;;;2.82;89.05;102399.16;5031612;28;20057;-76
2023/01/27 01:46:49;;;;;;;6.40;2.60;;;;;;;2.83;89.13;102390.63;5030329;28;20033;-76
2023/01/27 01:49:17;;;;;;;7.03;2.70;;;;;;;2.83;88.95;102388.06;5028415;28;20045;-76
2023/01/27 01:51:48;;;;;;;7.70;2.70;;;;;;;2.81;88.88;102388.84;5030309;28;20053;-76
2023/01/27 01:54:18;;;;;;;7.30;2.47;;;;;;;2.80;89.15;102390.53;5030665;28;20025;-76
2023/01/27 01:56:48;;;;;;;6.67;2.33;;;;;;;2.83;88.96;102400.91;5030859;28;20084;-76
2023/01/27 01:59:18;;;;;;;5.80;2.50;;;;;;;2.83;89.18;102394.88;5030238;28;20029;-76
2023/01/27 02:01:43;;;;;;;6.27;2.60;;;;;;;2.81;89.18;102392.28;5029956;28;20021;-77
2023/01/27 02:04:15;;;;;;;5.13;2.57;;;;;;;2.83;89.06;102397.44;5031008;28;20071;-76
2023/01/27 02:06:49;;;;;;;7.00;3.00;;;;;;;2.80;88.85;102395.66;5030038;28;20029;-76
2023/01/27 02:09:14;;;;;;;7.47;2.73;;;;;;;2.81;88.71;102394.84;5028958;28;20025;-76
2023/01/27 02:11:40;;;;;;;10.47;3.00;;;;;;;2.81;88.17;102400.00;5029079;28;20043;-76
2023/01/27 02:14:05;;;;;;;8.23;3.00;;;;;;;2.81;87.85;102394.84;5030286;28;20113;-76
2023/01/27 02:16:31;;;;;;;8.17;3.37;;;;;;;2.81;87.93;102392.28;5031482;28;20504;-76
2023/01/27 02:18:57;;;;;;;8.03;3.17;;;;;;;2.79;87.67;102405.91;5029472;28;20087;-76
2023/01/27 02:21:22;;;;;;;8.67;2.87;;;;;;;2.77;87.28;102400.72;5031592;28;20037;-76
2023/01/27 02:23:53;;;;;;;6.57;2.87;;;;;;;2.78;87.70;102417.88;5013834;28;20242;-76
2023/01/27 02:26:24;;;;;;;8.70;3.30;;;;;;;2.81;87.84;102399.13;5030832;28;20032;-76
2023/01/27 02:29:14;;;;;;;7.85;3.05;;;;;;;2.81;87.80;102402.56;5030242;28;20434;-76
2023/01/27 02:31:39;;;;;;;7.30;3.30;;;;;;;2.77;87.19;102411.00;5027573;28;20045;-76
2023/01/27 02:34:09;;;;;;;10.43;3.60;;;;;;;2.81;87.66;102407.69;5027931;28;20385;-76
2023/01/27 02:36:41;;;;;;;6.83;2.93;;;;;;;2.81;87.57;102423.13;5029671;28;20028;-76
2023/01/27 02:39:08;;;;;;;7.72;3.45;;;;;;;2.82;87.86;102408.59;5030760;28;20023;-76
2023/01/27 02:41:38;;;;;;;7.73;3.27;;;;;;;2.81;88.06;102423.13;5029217;28;20059;-76
2023/01/27 02:44:04;;;;;;;7.20;3.03;;;;;;;2.80;87.88;102426.50;5030641;28;20087;-76
2023/01/27 02:46:29;;;;;;;8.87;3.40;;;;;;;2.80;87.93;102429.09;5030500;28;20033;-76
2023/01/27 02:48:55;;;;;;;5.47;3.00;;;;;;;2.78;87.69;102417.00;5028158;28;20546;-76
2023/01/27 02:51:20;;;;;;;9.53;2.87;;;;;;;2.80;87.57;102421.38;5033593;28;20480;-76
2023/01/27 02:53:46;;;;;;;10.30;3.33;;;;;;;2.79;87.78;102429.91;5034589;28;20292;-76
2023/01/27 02:56:11;;;;;;;8.30;3.53;;;;;;;2.78;87.72;102422.16;5034040;28;20033;-76
2023/01/27 02:58:36;;;;;;;7.43;3.23;;;;;;;2.79;87.71;102413.63;5034040;28;20100;-76
2023/01/27 03:01:03;;;;;;;7.67;3.70;;;;;;;2.77;87.78;102417.84;5033490;28;20045;-76
2023/01/27 03:03:28;;;;;;;9.53;3.43;;;;;;;2.75;87.73;102420.34;5035047;28;20458;-74
2023/01/27 03:05:53;;;;;;;7.53;3.23;;;;;;;2.77;88.09;102421.28;5032153;28;20029;-76
2023/01/27 03:08:19;;;;;;;8.23;3.60;;;;;;;2.77;88.07;102426.41;5031827;28;20029;-77
2023/01/27 03:10:51;;;;;;;8.47;3.80;;;;;;;2.76;88.13;102428.94;5033706;28;20448;-76
2023/01/27 03:13:21;;;;;;;7.43;3.50;;;;;;;2.75;88.25;102428.06;5034967;28;20033;-76
2023/01/27 03:18:30;;;;;;;9.13;4.10;;;;;;;2.73;87.91;102434.88;5034868;28;20068;-76
2023/01/27 03:21:00;;;;;;;7.80;4.20;;;;;;;2.74;88.18;102431.44;5031955;28;20465;-76
2023/01/27 03:23:26;;;;;;;9.10;4.40;;;;;;;2.73;88.39;102430.59;5033537;28;20030;-76
2023/01/27 03:25:52;;;;;;;10.63;4.50;;;;;;;2.71;88.34;102423.66;5032278;28;20036;-76
2023/01/27 03:28:17;;;;;;;11.87;4.17;;;;;;;2.72;88.07;102428.84;5032711;28;20131;-76
2023/01/27 03:30:42;;;;;;;12.13;4.40;;;;;;;2.72;88.43;102433.97;5033102;28;20107;-76
2023/01/27 03:33:07;;;;;;;9.03;4.33;;;;;;;2.73;88.41;102438.28;5032937;28;20032;-76
2023/01/27 03:35:37;;;;;;;10.87;5.20;;;;;;;2.74;88.44;102436.59;5032703;28;20423;-76
2023/01/27 03:46:23;;;;;;;13.07;5.10;;;;;;;2.73;88.46;102448.56;5032163;28;20561;-76
2023/01/27 03:48:53;;;;;;;13.10;5.17;;;;;;;2.74;88.61;102449.44;5031225;28;20053;-76
2023/01/27 03:51:21;;;;;;;11.37;5.17;;;;;;;2.73;88.92;102450.28;5031907;28;20028;-76
2023/01/27 03:53:46;;;;;;;11.17;5.60;;;;;;;2.72;89.04;102458.81;5033684;28;20044;-76
2023/01/27 03:56:13;;;;;;;12.57;5.47;;;;;;;2.70;89.03;102458.75;5031301;28;20029;-76
2023/01/27 03:58:39;;;;;;;12.83;5.30;;;;;;;2.68;89.46;102457.81;5032218;28;20578;-77
2023/01/27 04:01:17;;;;;;;9.67;4.97;;;;;;;2.69;89.46;102453.56;5031942;28;20033;-76
2023/01/27 04:09:25;;;;;;;13.77;6.40;;;;;;;2.67;88.98;102455.22;5031168;28;20064;-76
2023/01/27 04:11:55;;;;;;;13.40;6.37;;;;;;;2.68;89.15;102462.09;5028770;28;20045;-76
2023/01/27 04:14:32;;;;;;;13.73;6.17;;;;;;;2.67;88.80;102461.22;5032223;28;20036;-76
2023/01/27 04:17:00;;;;;;;14.10;5.93;;;;;;;2.65;88.90;102467.13;5030832;28;20465;-76
2023/01/27 04:19:26;;;;;;;13.87;5.93;;;;;;;2.65;89.12;102462.84;5032138;28;20022;-76
2023/01/27 04:21:52;;;;;;;14.77;5.93;;;;;;;2.66;88.72;102469.75;5031960;28;20087;-76
2023/01/27 04:24:23;;;;;;;11.43;5.70;;;;;;;2.66;88.76;102463.75;5031506;28;20026;-76
2023/01/27 04:26:57;;;;;;;13.35;6.10;;;;;;;2.64;88.43;102455.09;5032581;28;20028;-76
2023/01/27 04:29:25;;;;;;;11.03;5.40;;;;;;;2.64;88.19;102467.94;5032251;28;20108;-76
2023/01/27 04:31:51;;;;;;;10.30;5.47;;;;;;;2.64;88.55;102470.53;5032805;28;20104;-76
2023/01/27 04:34:17;;;;;;;10.03;5.30;;;;;;;2.64;88.70;102466.28;5031242;28;20029;-76
2023/01/27 04:36:42;;;;;;;10.77;5.27;;;;;;;2.65;88.94;102472.28;5031577;28;20052;-76
2023/01/27 04:39:08;;;;;;;12.40;6.37;;;;;;;2.64;89.06;102467.94;5031369;28;20061;-76
2023/01/27 04:41:34;;;;;;;10.30;5.13;;;;;;;2.63;88.63;102467.09;5033112;28;20076;-76
2023/01/27 04:44:01;;;;;;;11.63;5.53;;;;;;;2.65;89.07;102469.69;5030722;28;20021;-76
2023/01/27 04:46:26;;;;;;;13.47;5.70;;;;;;;2.61;88.99;102466.16;5029568;28;22313;-76
2023/01/27 04:48:51;;;;;;;13.13;6.40;;;;;;;2.58;89.00;102464.34;5030387;28;20045;-76
2023/01/27 04:51:17;;;;;;;13.87;6.57;;;;;;;2.58;88.86;102461.78;5031182;28;20064;-76
2023/01/27 04:53:43;;;;;;;11.13;5.80;;;;;;;2.56;88.89;102468.56;5031325;28;20419;-76
2023/01/27 04:56:33;;;;;;;10.00;5.37;;;;;;;2.56;89.00;102473.69;5032232;28;20039;-76
2023/01/27 04:59:00;;;;;;;12.03;5.37;;;;;;;2.54;88.85;102477.94;5030786;28;20049;-76
2023/01/27 05:01:26;;;;;;;12.03;6.23;;;;;;;2.55;88.92;102483.94;5029203;28;20022;-76
2023/01/27 05:03:52;;;;;;;11.23;5.80;;;;;;;2.59;88.78;102480.66;5030342;28;20029;-76
2023/01/27 05:06:18;;;;;;;13.03;6.33;;;;;;;2.56;88.81;102481.41;5032031;28;20032;-76
2023/01/27 05:08:43;;;;;;;12.77;6.43;;;;;;;2.57;88.31;102485.72;5031264;28;20374;-76
2023/01/27 05:11:09;;;;;;;12.07;6.40;;;;;;;2.58;88.70;102490.03;5030197;28;20504;-76
2023/01/27 05:13:35;;;;;;;10.00;5.53;;;;;;;2.57;88.57;102484.88;5032054;28;20017;-76
2023/01/27 05:16:06;;;;;;;12.07;6.13;;;;;;;2.55;88.74;102491.63;5030420;28;20045;-76
2023/01/27 05:18:31;;;;;;;11.60;5.53;;;;;;;2.55;88.94;102486.50;5029839;28;20469;-76
2023/01/27 05:21:01;;;;;;;10.33;5.87;;;;;;;2.56;88.81;102491.69;5031607;28;20029;-77
2023/01/27 05:23:35;;;;;;;11.27;6.20;;;;;;;2.55;88.69;102487.38;5030596;28;20033;-76
2023/01/27 05:26:06;;;;;;;10.73;6.00;;;;;;;2.55;89.21;102497.66;5031003;28;20471;-76
2023/01/27 05:28:32;;;;;;;10.93;6.00;;;;;;;2.55;88.95;102491.63;5032093;28;20083;-76
2023/01/27 05:31:03;;;;;;;11.87;5.67;;;;;;;2.58;88.86;102492.59;5028851;28;20392;-76
2023/01/27 05:33:29;;;;;;;11.20;4.93;;;;;;;2.57;88.64;102496.00;5031453;28;20029;-76
2023/01/27 05:35:58;;;;;;;9.13;5.30;;;;;;;2.56;88.31;102501.97;5030210;28;20021;-76
2023/01/27 05:38:23;;;;;;;10.87;5.60;;;;;;;2.60;88.58;102504.63;5029240;28;20017;-76
2023/01/27 05:40:48;;;;;;;10.83;5.63;;;;;;;2.60;88.39;102499.50;5031158;28;20022;-76
2023/01/27 05:43:13;;;;;;;9.47;5.03;;;;;;;2.63;88.67;102510.78;5030678;28;20017;-76
2023/01/27 05:45:39;;;;;;;10.40;5.90;;;;;;;2.62;88.27;102510.69;5030958;28;20423;-76
2023/01/27 05:48:04;;;;;;;10.10;5.80;;;;;;;2.63;88.68;102510.78;5030207;28;20469;-76
2023/01/27 05:50:29;;;;;;;11.17;5.70;;;;;;;2.64;88.62;102512.53;5030721;28;20028;-76
2023/01/27 05:52:55;;;;;;;10.87;5.60;;;;;;;2.63;89.04;102515.03;5031253;28;20040;-76
2023/01/27 05:55:20;;;;;;;11.00;5.50;;;;;;;2.62;88.84;102509.03;5031095;28;20037;-76
2023/01/27 05:57:45;;;;;;;10.37;5.43;;;;;;;2.64;88.94;102516.78;5028987;28;20022;-76
2023/01/27 06:00:11;;;;;;;8.93;5.23;;;;;;;2.65;88.80;102523.66;5031101;28;20053;-76
2023/01/27 06:02:36;;;;;;;10.27;5.70;;;;;;;2.65;88.81;102521.09;5030066;28;20464;-76
2023/01/27 06:05:01;;;;;;;10.33;5.37;;;;;;;2.67;88.51;102516.88;5031392;28;20397;-76
2023/01/27 06:07:27;;;;;;;10.13;5.47;;;;;;;2.66;88.59;102522.84;5030853;28;20052;-76
2023/01/27 06:09:52;;;;;;;11.37;6.10;;;;;;;2.67;88.55;102522.03;5031255;28;20535;-76
2023/01/27 06:12:17;;;;;;;10.03;5.70;;;;;;;2.66;88.86;102517.72;5031862;28;20017;-76
2023/01/27 06:14:42;;;;;;;13.07;6.20;;;;;;;2.65;88.84;102511.69;5031510;28;20065;-76
2023/01/27 06:17:07;;;;;;;9.63;5.27;;;;;;;2.64;88.86;102517.66;5031422;28;20026;-76
2023/01/27 06:19:33;;;;;;;10.10;5.87;;;;;;;2.65;88.52;102524.53;5031034;28;20423;-76
2023/01/27 06:21:58;;;;;;;12.17;6.63;;;;;;;2.64;88.81;102521.91;5031032;28;20108;-76
2023/01/27 06:24:23;;;;;;;11.07;5.90;;;;;;;2.66;88.49;102522.84;5034819;28;20029;-76
2023/01/27 06:26:48;;;;;;;11.50;6.40;;;;;;;2.64;88.43;102521.91;5035383;28;20032;-76
2023/01/27 06:29:14;;;;;;;11.07;6.00;;;;;;;2.65;88.57;102526.22;5035222;28;20033;-76
2023/01/27 06:31:39;;;;;;;11.27;6.33;;;;;;;2.66;88.43;102522.84;5035284;28;20069;-76
2023/01/27 06:34:05;;;;;;;10.83;5.73;;;;;;;2.65;88.51;102529.66;5034863;28;20078;-76
2023/01/27 06:36:30;;;;;;;10.60;5.73;;;;;;;2.65;88.40;102532.22;5035024;28;20029;-76
2023/01/27 06:38:55;;;;;;;10.83;6.20;;;;;;;2.66;88.49;102530.56;5035862;28;20025;-76
2023/01/27 06:41:20;;;;;;;9.00;5.40;;;;;;;2.66;88.71;102527.97;5035070;28;20029;-76
2023/01/27 06:43:46;;;;;;;10.43;5.90;;;;;;;2.65;88.80;102526.22;5035120;28;20029;-76
2023/01/27 06:46:11;;;;;;;10.03;5.93;;;;;;;2.64;88.55;102527.06;5034216;28;20034;-77
2023/01/27 06:48:36;;;;;;;10.93;6.00;;;;;;;2.63;88.49;102525.31;5034932;28;20041;-76
2023/01/27 06:51:02;;;;;;;9.47;5.37;;;;;;;2.62;88.90;102529.59;5035211;28;20474;-76
2023/01/27 06:53:27;;;;;;;11.43;5.73;;;;;;;2.63;88.54;102528.75;5034971;28;20041;-76
2023/01/27 06:56:00;;;;;;;11.13;6.03;;;;;;;2.63;88.45;102536.47;5035147;28;20033;-76
2023/01/27 06:58:26;;;;;;;9.00;5.30;;;;;;;2.62;88.55;102541.53;5034889;28;20084;-76
2023/01/27 07:00:51;;;;;;;9.47;5.47;;;;;;;2.64;88.60;102539.91;5033907;28;20025;-76
2023/01/27 07:03:17;;;;;;;8.60;5.10;;;;;;;2.63;88.45;102536.47;5032273;28;20111;-76
2023/01/27 07:05:42;;;;;;;7.70;4.50;;;;;;;2.61;88.27;102548.38;5032343;28;20443;-76
2023/01/27 07:08:08;;;;;;;8.43;4.50;;;;;;;2.64;88.31;102552.75;5034558;28;20033;-76
2023/01/27 07:10:33;;;;;;;7.30;4.50;;;;;;;2.64;88.65;102547.59;5032435;28;20108;-76
2023/01/27 07:13:11;;;;;;;8.07;4.53;;;;;;;2.64;88.31;102553.63;5033536;28;20092;-76
2023/01/27 07:15:36;;;;;;;10.03;4.73;;;;;;;2.64;88.07;102555.31;5033661;28;20029;-76
2023/01/27 07:18:02;;;;;;;7.60;4.43;;;;;;;2.67;88.03;102552.88;5033282;28;20041;-76
2023/01/27 07:20:28;;;;;;;7.10;4.00;;;;;;;2.67;88.02;102547.72;5030513;28;20025;-76
2023/01/27 07:22:58;;;;;;;7.27;3.70;;;;;;;2.67;88.08;102555.44;5033564;28;20057;-76
2023/01/27 07:25:23;;;;;;;7.07;3.90;;;;;;;2.69;88.23;102552.09;5031026;28;20380;-76
2023/01/27 07:27:48;;;;;;;6.63;3.70;;;;;;;2.68;87.90;102554.63;5034478;28;20104;-76
2023/01/27 07:30:14;;;;;;;6.33;3.63;;;;;;;2.69;88.13;102556.38;5031331;28;20515;-76
2023/01/27 07:32:39;;;;;;;6.53;3.90;;;;;;;2.69;87.75;102558.94;5033741;28;20040;-76
2023/01/27 07:35:05;;;;;;;6.17;3.80;;;;;;;2.70;87.65;102569.25;5032410;28;20029;-76
2023/01/27 07:37:30;;;;;;;5.67;3.20;;;;;;;2.70;87.72;102558.97;5030894;28;20018;-76
2023/01/27 07:39:55;;;;;;;5.90;3.63;;;;;;;2.73;87.64;102571.06;5031373;28;20533;-76
2023/01/27 07:42:21;;;;;;;4.90;3.23;;;;;;;2.73;87.57;102571.94;5031251;28;20021;-76
2023/01/27 07:44:46;;;;;;;4.90;3.27;;;;;;;2.77;87.90;102566.91;5033217;28;20204;-75
2023/01/27 07:47:11;;;;;;;7.10;3.77;;;;;;;2.78;87.31;102574.66;5028521;28;20037;-76
2023/01/27 07:49:36;;;;;;;5.67;3.47;;;;;;;2.78;87.80;102569.50;5026046;28;20065;-76
2023/01/27 07:52:02;;;;;;;6.83;3.93;;;;;;;2.77;87.52;102578.03;5025217;28;20033;-76
2023/01/27 07:54:27;;;;;;;5.23;3.27;;;;;;;2.77;87.34;102585.75;5027212;28;20591;-76
2023/01/27 07:56:52;;;;;;;6.70;3.33;;;;;;;2.80;87.35;102579.88;5025441;28;20025;-76
2023/01/27 07:59:18;;;;;;;5.63;3.70;;;;;;;2.78;87.33;102584.94;5025540;28;20827;-76
2023/01/27 08:01:43;;;;;;;5.10;3.20;;;;;;;2.78;87.39;102587.50;5026730;28;20029;-76
2023/01/27 08:04:09;;;;;;;5.30;3.17;;;;;;;2.79;87.61;102588.41;5024625;28;20090;-76
2023/01/27 08:06:37;;;;;;;6.10;3.60;;;;;;;2.80;87.37;102585.88;5026448;28;20148;-76
2023/01/27 08:09:02;;;;;;;5.90;3.60;;;;;;;2.80;87.50;102590.16;5025441;28;20483;-76
2023/01/27 08:11:27;;;;;;;6.53;3.90;;;;;;;2.80;87.30;102592.72;5025325;28;20041;-76
2023/01/27 08:13:52;;;;;;;6.63;3.80;;;;;;;2.80;87.54;102591.00;5025641;28;20025;-76
2023/01/27 08:16:18;;;;;;;7.33;3.73;;;;;;;2.81;87.43;102587.63;5024383;28;20037;-77
2023/01/27 08:18:43;;;;;;;5.87;3.37;;;;;;;2.82;87.02;102589.38;5024944;28;20025;-77
2023/01/27 08:21:10;;;;;;;6.63;3.33;;;;;;;2.83;86.98;102588.56;5023703;28;20117;-76
2023/01/27 08:23:35;;;;;;;4.73;3.17;;;;;;;2.84;86.98;102589.41;5026000;28;20612;-77
2023/01/27 08:26:03;;;;;;;4.80;3.07;;;;;;;2.85;87.35;102591.16;5025079;28;20518;-76
2023/01/27 08:28:30;;;;;;;4.13;2.70;;;;;;;2.86;87.06;102596.38;5025075;28;20099;-76
2023/01/27 08:31:06;;;;;;;5.87;3.20;;;;;;;2.92;87.05;102594.81;5025098;28;20469;-79
2023/01/27 08:33:32;;;;;;;5.43;3.10;;;;;;;2.92;86.72;102599.97;5024790;28;20026;-75
2023/01/27 08:36:03;;;;;;;4.50;3.03;;;;;;;2.94;86.90;102593.19;5024350;28;20056;-76
2023/01/27 08:38:28;;;;;;;5.43;3.00;;;;;;;2.92;86.79;102594.81;5025068;28;20053;-76
2023/01/27 08:40:55;;;;;;;4.80;3.03;;;;;;;2.93;86.55;102594.00;5024465;28;20060;-76
2023/01/27 08:43:20;;;;;;;4.73;3.23;;;;;;;2.92;86.46;102605.09;5025119;28;20943;-76
2023/01/27 08:45:46;;;;;;;6.07;3.13;;;;;;;2.94;86.90;102613.75;5023583;28;20620;-76
2023/01/27 08:48:11;;;;;;;5.50;3.37;;;;;;;2.96;86.38;102617.25;5025984;28;20048;-75
2023/01/27 08:50:36;;;;;;;5.13;2.93;;;;;;;2.95;86.51;102615.50;5025465;28;20040;-75
2023/01/27 08:53:03;;;;;;;5.00;3.20;;;;;;;2.95;86.64;102615.50;5025209;28;20037;-75
2023/01/27 08:55:30;;;;;;;4.80;2.73;;;;;;;3.00;86.53;102616.53;5025794;28;20492;-75
2023/01/27 08:57:55;;;;;;;4.60;2.87;;;;;;;3.03;86.16;102611.50;5026458;28;20112;-76
2023/01/27 09:00:21;;;;;;;4.63;3.20;;;;;;;3.05;86.66;102612.44;5025958;28;20108;-76
2023/01/27 09:02:47;;;;;;;6.80;3.20;;;;;;;3.06;85.78;102619.34;5025616;28;20029;-76
2023/01/27 09:05:12;;;;;;;5.97;3.30;;;;;;;3.10;85.57;102616.00;5025366;28;20468;-75
2023/01/27 09:07:38;;;;;;;5.97;3.33;;;;;;;3.12;85.86;102618.66;5025054;28;20115;-75
2023/01/27 09:10:04;;;;;;;4.63;3.10;;;;;;;3.18;85.73;102619.75;5024405;28;20033;-75
2023/01/27 09:12:29;;;;;;;5.00;3.00;;;;;;;3.24;85.81;102618.19;5025169;28;20076;-75
2023/01/27 09:14:57;;;;;;;4.63;3.20;;;;;;;3.25;85.47;102619.91;5023432;28;20079;-75
2023/01/27 09:17:22;;;;;;;5.57;2.83;;;;;;;3.29;85.53;102621.78;5022120;28;20033;-75
2023/01/27 09:19:48;;;;;;;5.20;2.93;;;;;;;3.31;85.43;102622.72;5023955;28;20528;-76
2023/01/27 09:22:13;;;;;;;4.67;3.10;;;;;;;3.31;84.49;102630.44;5020788;28;20033;-75
2023/01/27 09:24:38;;;;;;;4.40;2.90;;;;;;;3.29;84.88;102626.94;5023414;28;20040;-75
2023/01/27 09:27:03;;;;;;;4.77;3.17;;;;;;;3.27;84.42;102632.03;5024043;28;20041;-75
2023/01/27 09:29:29;;;;;;;5.47;3.00;;;;;;;3.28;85.04;102636.34;5022874;28;20076;-75
2023/01/27 09:31:55;;;;;;;3.90;2.83;;;;;;;3.30;84.82;102638.97;5023496;28;20072;-75
2023/01/27 09:34:20;;;;;;;4.20;2.77;;;;;;;3.28;84.77;102645.75;5022555;28;21009;-75
2023/01/27 09:36:51;;;;;;;5.00;3.00;;;;;;;3.29;84.41;102647.50;5024274;28;20481;-75
2023/01/27 09:39:18;;;;;;;4.32;2.90;;;;;;;3.31;84.40;102651.00;5018103;28;20036;-76
2023/01/27 09:42:02;;;;;;;5.17;3.03;;;;;;;3.30;84.40;102651.84;5024186;28;20025;-76
2023/01/27 09:44:51;;;;;;;5.83;3.20;;;;;;;3.31;84.87;102645.88;5022972;28;20030;-77
2023/01/27 09:47:51;;;;;;;5.10;3.03;;;;;;;3.32;84.03;102653.66;5022823;28;20028;-76
2023/01/27 09:50:19;;;;;;;5.07;3.50;;;;;;;3.34;84.22;102653.69;5011927;28;20041;-75
2023/01/27 09:53:11;;;;;;;5.37;3.47;;;;;;;3.37;84.72;102651.22;5023624;28;20399;-76
2023/01/27 09:55:54;;;;;;;5.03;3.00;;;;;;;3.41;84.29;102647.06;5022137;28;20033;-76
2023/01/27 09:58:55;;;;;;;6.30;3.40;;;;;;;3.44;84.54;102649.72;5006164;28;20033;-75
2023/01/27 10:01:38;;;;;;;5.07;3.30;;;;;;;3.46;83.84;102650.66;4992801;28;20049;-76
2023/01/27 10:04:24;;;;;;;5.70;3.67;;;;;;;3.48;83.90;102662.75;5023286;28;20040;-76
2023/01/27 10:07:27;;;;;;;5.07;3.40;;;;;;;3.47;83.93;102663.56;5024157;28;20029;-76
2023/01/27 10:10:04;;;;;;;;;;;;;;;3.49;84.15;102651.63;5024492;28;20048;-76
2023/01/27 10:12:41;;;;;;;4.73;3.03;;;;;;;3.47;83.70;102648.13;5022231;28;19921;-76
2023/01/27 10:15:13;;;;;;;5.37;3.23;;;;;;;3.46;83.74;102654.09;5022789;28;20029;-76
2023/01/27 10:18:00;;;;;;;4.67;3.17;;;;;;;3.51;83.86;102656.81;5022829;28;20029;-76
2023/01/27 10:20:38;;;;;;;4.80;3.37;;;;;;;3.51;83.84;102645.66;5023025;28;20041;-76
2023/01/27 10:23:32;;;;;;;5.40;3.67;;;;;;;3.51;84.33;102653.38;5023573;28;20027;-76
2023/01/27 10:26:19;;;;;;;4.70;3.10;;;;;;;3.53;83.82;102652.59;5021703;28;20124;-76
2023/01/27 10:28:49;;;;;;;4.87;3.03;;;;;;;3.56;83.97;102651.84;5021369;28;20099;-74
2023/01/27 10:31:22;;;;;;;6.10;3.60;;;;;;;3.62;83.67;102649.44;5020494;28;20040;-76
2023/01/27 10:33:51;;;;;;;5.97;3.60;;;;;;;3.60;83.51;102648.50;5020270;28;20025;-75
2023/01/27 10:36:25;;;;;;;5.33;3.37;;;;;;;3.63;83.80;102653.75;5019765;28;20037;-76
2023/01/27 10:39:02;;;;;;;4.40;2.90;;;;;;;3.67;83.83;102653.03;5019504;28;20046;-76
2023/01/27 10:41:52;;;;;;;4.90;3.10;;;;;;;3.64;83.39;102647.78;5020872;28;20032;-76
2023/01/27 10:44:26;;;;;;;4.53;3.07;;;;;;;3.61;84.04;102655.41;5021518;28;20026;-76
2023/01/27 10:47:18;;;;;;;5.07;3.10;;;;;;;3.59;83.55;102654.47;5020548;28;20037;-76
2023/01/27 10:49:52;;;;;;;4.95;3.28;;;;;;;3.56;83.47;102651.84;5022864;28;20041;-76
2023/01/27 10:52:29;;;;;;;5.10;3.07;;;;;;;3.56;83.73;102651.84;5021322;28;20033;-76
2023/01/27 10:54:59;;;;;;;5.60;3.30;;;;;;;3.58;83.68;102651.06;5020994;28;20037;-76
2023/01/27 10:57:38;;;;;;;5.30;3.30;;;;;;;3.59;83.03;102650.22;5019157;28;20033;-75
2023/01/27 11:00:20;;;;;;;5.53;3.20;;;;;;;3.53;83.32;102654.31;5020110;28;20029;-76
2023/01/27 11:03:22;;;;;;;6.17;3.50;;;;;;;3.54;83.06;102645.75;5020245;28;20036;-76
2023/01/27 11:05:51;;;;;;;4.90;3.00;;;;;;;3.54;83.16;102653.47;5019874;28;20025;-75
2023/01/27 11:08:20;;;;;;;4.70;3.10;;;;;;;3.55;84.09;102644.94;5019206;28;20029;-75
2023/01/27 11:13:36;;;;;;;5.87;3.27;;;;;;;3.65;83.54;102649.53;5026598;28;20123;-75
2023/01/27 11:16:04;;;;;;;5.53;3.20;;;;;;;3.70;83.86;102635.13;5025807;28;20057;-77
2023/01/27 11:18:34;;;;;;;6.53;3.50;;;;;;;3.74;83.79;102638.66;5027646;28;20830;-76
2023/01/27 11:21:05;;;;;;;6.33;3.30;;;;;;;3.76;83.57;102627.59;5025305;28;20029;-76
2023/01/27 11:23:37;;;;;;;4.83;3.03;;;;;;;3.82;83.91;102633.75;5026412;28;20072;-76
2023/01/27 11:26:39;;;;;;;6.40;3.65;;;;;;;3.86;83.61;102630.47;5027068;28;20292;-75
2023/01/27 11:29:28;;;;;;;;;;;;;;;3.90;83.61;102624.59;5025612;28;20621;-76
2023/01/27 11:32:02;;;;;;;5.10;3.10;;;;;;;3.97;82.95;102629.09;5026359;28;19927;-75
2023/01/27 11:34:27;;;;;;;5.83;3.40;;;;;;;3.97;83.34;102631.66;5027246;28;20056;-76
2023/01/27 11:36:53;;;;;;;6.93;3.30;;;;;;;4.00;83.08;102633.47;5025940;28;20060;-76
2023/01/27 11:39:18;;;;;;;7.22;3.60;;;;;;;4.00;83.10;102631.75;5025483;28;20713;-75
2023/01/27 11:41:51;;;;;;;5.83;3.80;;;;;;;4.07;82.03;102631.13;5026109;28;20033;-75
2023/01/27 11:44:23;;;;;;;5.47;3.45;;;;;;;4.03;82.38;102633.53;5026108;28;20385;-75
2023/01/27 11:46:50;;;;;;;5.80;3.60;;;;;;;4.03;82.22;102639.59;5026069;28;20076;-76
2023/01/27 11:49:22;;;;;;;6.63;3.63;;;;;;;4.00;82.18;102629.19;5024376;28;20057;-76
2023/01/27 11:51:48;;;;;;;;;;;;;;;3.99;82.50;102636.88;5023977;28;20037;-76
2023/01/27 11:54:20;;;;;;;6.13;3.63;;;;;;;3.96;81.74;102637.63;5006505;28;19921;-76
2023/01/27 11:56:48;;;;;;;5.70;3.73;;;;;;;3.94;81.91;102634.13;5024239;28;20029;-76
2023/01/27 11:59:24;;;;;;;6.83;3.90;;;;;;;3.97;81.50;102634.22;5022083;28;20037;-76
2023/01/27 12:01:58;;;;;;;5.60;3.37;;;;;;;3.90;82.04;102627.16;5024375;28;20029;-76
2023/01/27 12:04:47;;;;;;;6.40;3.90;;;;;;;3.90;82.35;102632.31;5023399;28;20037;-76
2023/01/27 12:07:32;;;;;;;7.50;3.77;;;;;;;3.86;82.11;102630.47;5024419;28;20084;-77
2023/01/27 12:09:58;;;;;;;5.22;3.40;;;;;;;3.87;81.71;102625.34;5022098;28;20025;-76